createdAt,value
2022-09-14T00:01:58.980Z,12.08
2022-09-14T00:05:07.089Z,12.10
2022-09-14T00:08:13.122Z,12.12
2022-09-14T00:11:24.813Z,12.11
2022-09-14T00:14:29.724Z,12.12
2022-09-14T00:17:35.749Z,12.13
2022-09-14T00:20:40.953Z,12.17
2022-09-14T00:23:48.103Z,12.18
2022-09-14T00:26:55.200Z,12.22
2022-09-14T00:30:03.871Z,12.23
2022-09-14T00:33:08.655Z,12.24
2022-09-14T00:36:28.671Z,12.25
2022-09-14T00:39:37.703Z,12.26
2022-09-14T00:42:43.628Z,12.26
2022-09-14T00:45:48.356Z,12.25
2022-09-14T00:48:54.434Z,12.24
2022-09-14T00:52:11.410Z,12.22
2022-09-14T00:55:24.300Z,12.20
2022-09-14T00:58:30.583Z,12.18
2022-09-14T01:01:37.071Z,12.15
2022-09-14T01:04:42.193Z,12.14
2022-09-14T01:08:04.664Z,12.12
2022-09-14T01:11:24.445Z,12.08
2022-09-14T01:14:33.570Z,12.04
2022-09-14T01:18:24.783Z,12.01
2022-09-14T01:21:51.880Z,12.01
2022-09-14T01:25:10.294Z,11.98
2022-09-14T01:28:18.060Z,11.96
2022-09-14T01:31:28.364Z,11.95
2022-09-14T01:34:56.405Z,11.95
2022-09-14T01:38:25.261Z,11.93
2022-09-14T01:41:37.017Z,11.90
2022-09-14T01:44:47.486Z,11.89
2022-09-14T01:47:58.257Z,11.88
2022-09-14T01:51:08.522Z,11.84
2022-09-14T01:54:18.183Z,11.81
2022-09-14T01:57:46.082Z,11.75
2022-09-14T02:00:55.733Z,11.67
2022-09-14T02:04:12.117Z,11.65
2022-09-14T02:07:18.118Z,11.63
2022-09-14T02:10:25.557Z,11.59
2022-09-14T02:13:32.166Z,11.56
2022-09-14T02:16:37.614Z,11.56
2022-09-14T02:19:47.659Z,11.54
2022-09-14T02:22:53.021Z,11.54
2022-09-14T02:26:00.089Z,11.55
2022-09-14T02:29:06.145Z,11.55
2022-09-14T02:32:28.236Z,11.54
2022-09-14T02:35:54.948Z,11.52
2022-09-14T02:39:19.072Z,11.54
2022-09-14T02:42:38.208Z,11.52
2022-09-14T02:46:25.383Z,11.52
2022-09-14T02:50:05.470Z,11.50
2022-09-14T02:53:34.759Z,11.51
2022-09-14T02:56:40.796Z,11.52
2022-09-14T02:59:46.616Z,11.51
2022-09-14T03:02:53.118Z,11.53
2022-09-14T03:05:59.091Z,11.55
2022-09-14T03:09:06.564Z,11.56
2022-09-14T03:12:12.063Z,11.58
2022-09-14T03:15:17.224Z,11.61
2022-09-14T03:18:22.375Z,11.63
2022-09-14T03:21:30.060Z,11.63
2022-09-14T03:24:39.198Z,11.66
2022-09-14T03:27:44.794Z,11.66
2022-09-14T03:30:51.177Z,11.66
2022-09-14T03:33:57.543Z,11.67
2022-09-14T03:37:03.681Z,11.68
2022-09-14T03:40:10.406Z,11.69
2022-09-14T03:43:16.695Z,11.70
2022-09-14T03:46:30.857Z,11.72
2022-09-14T03:49:37.512Z,11.74
2022-09-14T03:52:43.964Z,11.71
2022-09-14T03:55:49.644Z,11.70
2022-09-14T03:58:58.773Z,11.67
2022-09-14T04:02:05.689Z,11.62
2022-09-14T04:05:11.333Z,11.61
2022-09-14T04:08:17.126Z,11.59
2022-09-14T04:11:24.607Z,11.62
2022-09-14T04:14:30.477Z,11.65
2022-09-14T04:17:35.920Z,11.69
2022-09-14T04:20:43.188Z,11.72
2022-09-14T04:24:13.613Z,11.75
2022-09-14T04:26:58.160Z,11.76
2022-09-14T04:30:07.346Z,11.78
2022-09-14T04:33:14.350Z,11.81
2022-09-14T04:36:26.074Z,11.84
2022-09-14T04:39:33.967Z,11.88
2022-09-14T04:42:41.698Z,11.90
2022-09-14T04:45:49.653Z,11.93
2022-09-14T04:48:55.997Z,11.94
2022-09-14T04:52:02.375Z,11.97
2022-09-14T04:55:09.068Z,11.99
2022-09-14T04:58:14.841Z,12.03
2022-09-14T05:01:22.323Z,12.05
2022-09-14T05:04:27.718Z,12.06
2022-09-14T05:07:37.890Z,12.08
2022-09-14T05:10:46.885Z,12.09
2022-09-14T05:13:52.363Z,12.09
2022-09-14T05:17:12.389Z,12.08
2022-09-14T05:20:21.335Z,12.08
2022-09-14T05:23:30.156Z,12.06
2022-09-14T05:26:40.058Z,12.06
2022-09-14T05:29:47.836Z,12.10
2022-09-14T05:32:57.958Z,12.16
2022-09-14T05:36:06.250Z,12.25
2022-09-14T05:39:23.047Z,12.34
2022-09-14T05:42:28.942Z,12.42
2022-09-14T05:45:34.253Z,12.49
2022-09-14T05:48:39.889Z,12.56
2022-09-14T05:51:46.496Z,12.60
2022-09-14T05:54:56.750Z,12.63
2022-09-14T05:58:07.197Z,12.68
2022-09-14T06:01:23.709Z,12.73
2022-09-14T06:04:29.756Z,12.82
2022-09-14T06:07:38.423Z,12.89
2022-09-14T06:10:44.430Z,12.96
2022-09-14T06:13:51.415Z,13.00
2022-09-14T06:16:59.562Z,13.05
2022-09-14T06:20:05.253Z,13.09
2022-09-14T06:23:12.506Z,13.14
2022-09-14T06:26:19.785Z,13.19
2022-09-14T06:29:27.981Z,13.24
2022-09-14T06:32:35.240Z,13.28
2022-09-14T06:35:40.645Z,13.35
2022-09-14T06:38:46.789Z,13.38
2022-09-14T06:45:40.469Z,13.40
2022-09-14T06:48:58.588Z,13.39
2022-09-14T06:52:05.776Z,13.41
2022-09-14T06:55:13.093Z,13.43
2022-09-14T06:58:20.820Z,13.47
2022-09-14T07:01:30.894Z,13.52
2022-09-14T07:04:44.181Z,13.66
2022-09-14T07:07:51.608Z,13.75
2022-09-14T07:11:03.718Z,13.81
2022-09-14T07:14:16.687Z,13.79
2022-09-14T07:17:23.780Z,13.81
2022-09-14T07:20:29.191Z,13.83
2022-09-14T07:23:38.276Z,13.83
2022-09-14T07:26:50.637Z,13.88
2022-09-14T07:29:56.449Z,13.94
2022-09-14T07:33:02.240Z,13.96
2022-09-14T07:36:10.228Z,13.92
2022-09-14T07:39:16.109Z,13.91
2022-09-14T07:42:22.869Z,13.90
2022-09-14T07:45:30.160Z,13.90
2022-09-14T07:48:35.947Z,13.92
2022-09-14T07:51:44.585Z,13.98
2022-09-14T07:54:51.638Z,14.06
2022-09-14T07:57:59.868Z,14.12
2022-09-14T08:01:07.403Z,14.22
2022-09-14T08:04:16.957Z,14.29
2022-09-14T08:07:23.208Z,14.37
2022-09-14T08:10:28.287Z,14.47
2022-09-14T08:13:42.192Z,14.55
2022-09-14T08:16:59.847Z,14.67
2022-09-14T08:20:07.222Z,14.80
2022-09-14T08:23:15.492Z,14.96
2022-09-14T08:26:32.458Z,15.09
2022-09-14T08:29:37.985Z,15.18
2022-09-14T08:32:43.854Z,15.18
2022-09-14T08:35:57.753Z,15.17
2022-09-14T08:38:59.226Z,15.16
2022-09-14T08:42:14.225Z,15.18
2022-09-14T08:45:22.063Z,15.24
2022-09-14T08:48:39.916Z,15.25
2022-09-14T08:52:07.925Z,15.24
2022-09-14T08:55:16.814Z,15.21
2022-09-14T08:58:42.632Z,15.21
2022-09-14T09:02:33.885Z,15.23
2022-09-14T09:06:03.228Z,15.25
2022-09-14T09:09:37.225Z,15.22
2022-09-14T09:13:02.853Z,15.19
2022-09-14T09:16:55.742Z,15.13
2022-09-14T09:20:33.526Z,15.14
2022-09-14T09:23:46.283Z,15.20
2022-09-14T09:26:52.843Z,15.29
2022-09-14T09:30:00.189Z,15.44
2022-09-14T09:33:06.432Z,15.56
2022-09-14T09:36:16.232Z,15.73
2022-09-14T09:39:22.196Z,15.91
2022-09-14T09:42:37.509Z,16.10
2022-09-14T09:46:05.667Z,16.24
2022-09-14T09:49:13.253Z,16.37
2022-09-14T09:52:25.122Z,16.52
2022-09-14T09:55:36.124Z,16.65
2022-09-14T09:58:50.886Z,16.73
2022-09-14T10:02:00.896Z,16.82
2022-09-14T10:05:27.347Z,16.85
2022-09-14T10:08:34.132Z,16.81
2022-09-14T10:11:52.966Z,16.72
2022-09-14T10:15:01.629Z,16.62
2022-09-14T10:22:26.272Z,16.56
2022-09-14T10:25:37.062Z,16.64
2022-09-14T10:28:48.029Z,16.68
2022-09-14T10:31:54.443Z,16.76
2022-09-14T10:35:01.567Z,16.87
2022-09-14T10:38:35.576Z,16.98
2022-09-14T10:41:56.081Z,17.00
2022-09-14T10:45:35.099Z,17.08
2022-09-14T10:48:56.092Z,17.11
2022-09-14T10:52:38.565Z,17.11
2022-09-14T10:56:30.120Z,17.10
2022-09-14T11:00:08.688Z,17.05
2022-09-14T11:03:45.983Z,17.04
2022-09-14T11:07:34.944Z,17.07
2022-09-14T11:11:17.880Z,17.10
2022-09-14T11:14:48.075Z,17.05
2022-09-14T11:18:07.931Z,17.11
2022-09-14T11:21:39.511Z,17.18
2022-09-14T11:25:02.102Z,17.31
2022-09-14T11:28:23.987Z,17.37
2022-09-14T11:32:19.228Z,17.38
2022-09-14T11:35:16.017Z,17.38
2022-09-14T11:38:35.865Z,17.42
2022-09-14T11:42:19.029Z,17.45
2022-09-14T11:45:39.244Z,17.55
2022-09-14T11:48:56.771Z,17.67
2022-09-14T11:52:23.993Z,17.81
2022-09-14T11:55:32.033Z,18.05
2022-09-14T11:58:40.646Z,18.28
2022-09-14T12:01:53.225Z,18.31
2022-09-14T12:05:25.194Z,18.26
2022-09-14T12:08:46.324Z,18.31
2022-09-14T12:11:52.991Z,18.59
2022-09-14T12:14:59.770Z,18.90
2022-09-14T12:18:07.596Z,19.04
2022-09-14T12:21:23.260Z,19.19
2022-09-14T12:24:30.474Z,19.14
2022-09-14T12:27:39.376Z,18.95
2022-09-14T12:31:02.296Z,18.88
2022-09-14T12:34:34.441Z,19.01
2022-09-14T12:37:48.471Z,19.25
2022-09-14T12:40:55.196Z,19.46
2022-09-14T12:44:06.759Z,19.46
2022-09-14T12:47:15.099Z,19.36
2022-09-14T12:50:33.028Z,19.22
2022-09-14T12:53:45.129Z,19.07
2022-09-14T12:57:23.547Z,18.94
2022-09-14T13:00:39.099Z,18.85
2022-09-14T13:04:05.372Z,18.69
2022-09-14T13:07:12.379Z,18.57
2022-09-14T13:10:20.183Z,18.44
2022-09-14T13:13:36.893Z,18.29
2022-09-14T13:17:00.934Z,18.19
2022-09-14T13:20:13.699Z,18.08
2022-09-14T13:23:22.754Z,17.97
2022-09-14T13:26:38.141Z,17.93
2022-09-14T13:29:45.321Z,17.93
2022-09-14T13:33:05.669Z,17.94
2022-09-14T13:36:15.887Z,17.95
2022-09-14T13:39:28.988Z,17.93
2022-09-14T13:42:35.034Z,17.85
2022-09-14T13:45:40.903Z,17.80
2022-09-14T13:48:47.731Z,17.75
2022-09-14T13:51:53.618Z,17.71
2022-09-14T13:54:59.118Z,17.64
2022-09-14T13:58:30.572Z,17.56
2022-09-14T14:01:42.811Z,17.51
2022-09-14T14:04:51.069Z,17.48
2022-09-14T14:07:59.358Z,17.49
2022-09-14T14:11:05.926Z,17.52
2022-09-14T14:14:13.721Z,17.52
2022-09-14T14:17:43.930Z,17.46
2022-09-14T14:20:52.800Z,17.38
2022-09-14T14:24:12.605Z,17.29
2022-09-14T14:27:07.945Z,17.20
2022-09-14T14:30:15.018Z,17.10
2022-09-14T14:33:30.287Z,17.00
2022-09-14T14:36:35.341Z,16.93
2022-09-14T14:39:44.395Z,16.86
2022-09-14T14:42:49.463Z,16.81
2022-09-14T14:45:54.759Z,16.77
2022-09-14T14:49:00.868Z,16.74
2022-09-14T14:52:06.293Z,16.71
2022-09-14T14:55:13.211Z,16.69
2022-09-14T14:58:21.227Z,16.67
2022-09-14T15:01:27.341Z,16.64
2022-09-14T15:04:32.192Z,16.60
2022-09-14T15:07:39.432Z,16.58
2022-09-14T15:10:45.628Z,16.55
2022-09-14T15:13:50.971Z,16.49
2022-09-14T15:16:57.931Z,16.44
2022-09-14T15:20:03.848Z,16.39
2022-09-14T15:23:09.703Z,16.33
2022-09-14T15:26:16.706Z,16.26
2022-09-14T15:29:23.335Z,16.21
2022-09-14T15:32:29.983Z,16.12
2022-09-14T15:35:37.195Z,16.04
2022-09-14T15:38:42.842Z,15.96
2022-09-14T15:41:49.029Z,15.89
2022-09-14T15:44:55.035Z,15.81
2022-09-14T15:48:04.069Z,15.75
2022-09-14T15:51:10.254Z,15.67
2022-09-14T15:54:17.587Z,15.62
2022-09-14T15:57:26.487Z,15.55
2022-09-14T16:00:33.439Z,15.51
2022-09-14T16:03:39.200Z,15.48
2022-09-14T16:06:44.868Z,15.46
2022-09-14T16:09:58.798Z,15.43
2022-09-14T16:13:05.088Z,15.39
2022-09-14T16:16:26.357Z,15.33
2022-09-14T16:19:31.941Z,15.29
2022-09-14T16:22:39.144Z,15.27
2022-09-14T16:25:48.671Z,15.22
2022-09-14T16:28:57.542Z,15.18
2022-09-14T16:32:04.561Z,15.16
2022-09-14T16:35:11.850Z,15.14
2022-09-14T16:38:21.501Z,15.10
2022-09-14T16:41:28.349Z,15.08
2022-09-14T16:44:39.776Z,15.03
2022-09-14T16:47:48.758Z,14.98
2022-09-14T16:50:56.965Z,14.93
2022-09-14T16:54:03.438Z,14.89
2022-09-14T16:57:15.113Z,14.86
2022-09-14T17:00:21.443Z,14.84
2022-09-14T17:03:31.746Z,14.82
2022-09-14T17:06:40.430Z,14.78
2022-09-14T17:09:49.442Z,14.78
2022-09-14T17:12:57.117Z,14.76
2022-09-14T17:16:03.293Z,14.77
2022-09-14T17:19:15.640Z,14.77
2022-09-14T17:22:22.275Z,14.78
2022-09-14T17:25:29.828Z,14.78
2022-09-14T17:28:42.109Z,14.77
2022-09-14T17:31:51.825Z,14.75
2022-09-14T17:34:59.989Z,14.73
2022-09-14T17:38:06.296Z,14.73
2022-09-14T17:41:31.174Z,14.72
2022-09-14T17:44:38.647Z,14.70
2022-09-14T17:47:43.738Z,14.70
2022-09-14T17:50:49.802Z,14.68
2022-09-14T17:53:56.822Z,14.67
2022-09-14T17:57:03.719Z,14.67
2022-09-14T18:00:09.038Z,14.68
2022-09-14T18:03:16.437Z,14.67
2022-09-14T18:06:24.113Z,14.64
2022-09-14T18:09:36.502Z,14.63
2022-09-14T18:12:47.895Z,14.63
2022-09-14T18:15:54.835Z,14.61
2022-09-14T18:19:01.793Z,14.62
2022-09-14T18:22:08.076Z,14.62
2022-09-14T18:25:13.710Z,14.65
2022-09-14T18:28:21.699Z,14.67
2022-09-14T18:31:29.174Z,14.69
2022-09-14T18:34:37.200Z,14.70
2022-09-14T18:37:42.431Z,14.73
2022-09-14T18:40:52.229Z,14.74
2022-09-14T18:44:00.154Z,14.74
2022-09-14T18:47:06.796Z,14.73
2022-09-14T18:50:14.945Z,14.70
2022-09-14T18:53:21.129Z,14.68
2022-09-14T18:56:29.036Z,14.68
2022-09-14T18:59:35.433Z,14.68
2022-09-14T19:02:43.138Z,14.67
2022-09-14T19:05:54.475Z,14.66
2022-09-14T19:09:01.398Z,14.65
2022-09-14T19:12:08.575Z,14.65
2022-09-14T19:15:15.937Z,14.64
2022-09-14T19:18:24.700Z,14.63
2022-09-14T19:21:34.716Z,14.59
2022-09-14T19:24:42.521Z,14.55
2022-09-14T19:27:49.509Z,14.50
2022-09-14T19:30:56.865Z,14.43
2022-09-14T19:34:04.952Z,14.35
2022-09-14T19:37:10.661Z,14.27
2022-09-14T19:40:18.803Z,14.20
2022-09-14T19:43:24.861Z,14.11
2022-09-14T19:46:33.473Z,14.01
2022-09-14T19:49:41.065Z,13.91
2022-09-14T19:52:48.065Z,13.82
2022-09-14T19:55:54.814Z,13.71
2022-09-14T19:59:05.119Z,13.65
2022-09-14T20:02:11.126Z,13.56
2022-09-14T20:05:20.132Z,13.49
2022-09-14T20:08:25.511Z,13.42
2022-09-14T20:11:35.185Z,13.32
2022-09-14T20:14:41.421Z,13.26
2022-09-14T20:17:51.191Z,13.18
2022-09-14T20:20:58.241Z,13.13
2022-09-14T20:24:17.025Z,13.07
2022-09-14T20:27:23.412Z,13.00
2022-09-14T20:30:28.980Z,12.93
2022-09-14T20:33:35.184Z,12.90
2022-09-14T20:36:41.561Z,12.86
2022-09-14T20:39:47.181Z,12.82
2022-09-14T20:42:55.506Z,12.77
2022-09-14T20:46:02.324Z,12.75
2022-09-14T20:49:09.968Z,12.73
2022-09-14T20:52:16.276Z,12.73
2022-09-14T20:55:24.403Z,12.72
2022-09-14T20:58:30.275Z,12.74
2022-09-14T21:01:38.717Z,12.75
2022-09-14T21:04:45.746Z,12.74
2022-09-14T21:07:56.375Z,12.75
2022-09-14T21:11:02.872Z,12.77
2022-09-14T21:14:09.564Z,12.76
2022-09-14T21:17:35.575Z,12.76
2022-09-14T21:20:41.247Z,12.78
2022-09-14T21:23:48.915Z,12.80
2022-09-14T21:26:55.735Z,12.81
2022-09-14T21:30:03.014Z,12.82
2022-09-14T21:33:09.536Z,12.82
2022-09-14T21:36:25.590Z,12.82
2022-09-14T21:39:35.301Z,12.79
2022-09-14T21:42:42.005Z,12.78
2022-09-14T21:45:49.569Z,12.79
2022-09-14T21:48:56.147Z,12.78
2022-09-14T21:52:04.020Z,12.78
2022-09-14T21:55:09.917Z,12.79
2022-09-14T21:58:17.341Z,12.79
2022-09-14T22:01:26.093Z,12.80
2022-09-14T22:04:37.901Z,12.81
2022-09-14T22:07:46.969Z,12.81
2022-09-14T22:10:52.864Z,12.83
2022-09-14T22:13:58.850Z,12.84
2022-09-14T22:17:05.167Z,12.84
2022-09-14T22:20:11.510Z,12.85
2022-09-14T22:23:17.550Z,12.86
2022-09-14T22:26:27.591Z,12.88
2022-09-14T22:29:32.873Z,12.89
2022-09-14T22:32:39.239Z,12.92
2022-09-14T22:35:45.244Z,12.95
2022-09-14T22:38:54.071Z,12.97
2022-09-14T22:42:01.396Z,13.00
2022-09-14T22:45:07.604Z,13.02
2022-09-14T22:48:13.876Z,13.03
2022-09-14T22:51:21.031Z,13.03
2022-09-14T22:54:26.832Z,13.01
2022-09-14T22:57:32.020Z,13.00
2022-09-14T23:00:37.653Z,12.97
2022-09-14T23:03:45.457Z,12.95
2022-09-14T23:06:57.781Z,12.93
2022-09-14T23:10:03.664Z,12.91
2022-09-14T23:13:10.798Z,12.90
2022-09-14T23:16:18.818Z,12.91
2022-09-14T23:19:27.914Z,12.90
2022-09-14T23:22:33.599Z,12.88
2022-09-14T23:25:39.126Z,12.84
2022-09-14T23:28:45.634Z,12.81
2022-09-14T23:31:51.166Z,12.79
2022-09-14T23:34:58.453Z,12.78
2022-09-14T23:38:04.654Z,12.77
2022-09-14T23:41:11.085Z,12.78
2022-09-14T23:44:16.993Z,12.77
2022-09-14T23:47:22.758Z,12.76
2022-09-14T23:50:30.492Z,12.74
2022-09-14T23:53:36.580Z,12.73
2022-09-14T23:56:46.892Z,12.71
2022-09-14T23:59:52.408Z,12.68
